Time;durP1;ratioP1;P1;durP2;ratioP2;P2;SDS_P1;SDS_P2;PMS_P1;PMS_P2;Temp;Humidity;BMP_temperature;BMP_pressure;BME280_temperature;BME280_humidity;BME280_pressure;Samples;Min_cycle;Max_cycle;Signal;HPM_P1;HPM_P2
2022/11/17 00:01:21;;;;;;;29.77;10.13;;;;;;;;;;4995416;28;20447;-61
2022/11/17 00:03:49;;;;;;;27.38;9.40;;;;;;;;;;4995257;28;20149;-61
2022/11/17 00:06:19;;;;;;;25.10;9.35;;;;;;;;;;4995302;28;20030;-61
2022/11/17 00:08:46;;;;;;;25.42;9.48;;;;;;;;;;4995103;28;20030;-61
2022/11/17 00:11:13;;;;;;;26.02;9.20;;;;;;;;;;4995077;28;20038;-61
2022/11/17 00:16:26;;;;;;;28.20;10.05;;;;;;;;;;4995045;28;20126;-61
2022/11/17 00:21:41;;;;;;;31.10;9.30;;;;;;;;;;4995204;28;20074;-61
2022/11/17 00:24:08;;;;;;;28.10;8.65;;;;;;;;;;4994340;28;20054;-61
2022/11/17 00:27:00;;;;;;;25.45;8.88;;;;;;;;;;4994904;28;20477;-61
2022/11/17 00:29:25;;;;;;;30.92;9.38;;;;;;;;;;4994853;28;20034;-61
2022/11/17 00:34:37;;;;;;;29.85;10.15;;;;;;;;;;4994948;28;20049;-61
2022/11/17 00:37:05;;;;;;;25.10;9.10;;;;;;;;;;4994646;28;20026;-61
2022/11/17 00:39:32;;;;;;;29.08;9.35;;;;;;;;;;4994446;28;20361;-61
2022/11/17 00:42:00;;;;;;;23.67;8.38;;;;;;;;;;4994611;28;20044;-61
2022/11/17 00:44:27;;;;;;;26.00;8.70;;;;;;;;;;4994417;28;20489;-61
2022/11/17 00:46:54;;;;;;;27.42;8.50;;;;;;;;;;4994537;28;20145;-61
2022/11/17 00:49:24;;;;;;;24.50;8.70;;;;;;;;;;4994457;28;20026;-61
2022/11/17 00:51:51;;;;;;;20.88;8.05;;;;;;;;;;4994095;28;20053;-61
2022/11/17 00:54:18;;;;;;;24.52;8.82;;;;;;;;;;4994220;28;20117;-61
2022/11/17 00:56:46;;;;;;;23.35;8.18;;;;;;;;;;4994611;28;20034;-61
2022/11/17 00:59:13;;;;;;;23.35;8.48;;;;;;;;;;4994287;28;20023;-61
2022/11/17 01:01:40;;;;;;;23.05;8.63;;;;;;;;;;4994201;28;20034;-61
2022/11/17 01:04:08;;;;;;;25.27;8.82;;;;;;;;;;4993981;28;20030;-61
2022/11/17 01:06:35;;;;;;;22.48;8.00;;;;;;;;;;4994121;28;20030;-61
2022/11/17 01:09:04;;;;;;;22.55;7.90;;;;;;;;;;4993721;28;20022;-61
2022/11/17 01:11:31;;;;;;;21.45;7.50;;;;;;;;;;5012760;28;20045;-60
2022/11/17 01:14:00;;;;;;;23.55;7.90;;;;;;;;;;5013118;28;20034;-60
2022/11/17 01:16:27;;;;;;;30.33;11.05;;;;;;;;;;5012255;28;20053;-59
2022/11/17 01:18:54;;;;;;;26.77;8.20;;;;;;;;;;5013299;28;20129;-61
2022/11/17 01:21:23;;;;;;;28.63;7.63;;;;;;;;;;5012949;28;20022;-60
2022/11/17 01:23:51;;;;;;;27.35;6.72;;;;;;;;;;5013009;28;20558;-60
2022/11/17 01:26:22;;;;;;;27.60;7.93;;;;;;;;;;5011961;28;20028;-61
2022/11/17 01:28:49;;;;;;;25.92;7.20;;;;;;;;;;4997883;28;20033;-60
2022/11/17 01:31:18;;;;;;;30.73;6.22;;;;;;;;;;4993334;28;20049;-61
2022/11/17 01:33:45;;;;;;;30.77;5.50;;;;;;;;;;4992875;28;20066;-61
2022/11/17 01:36:14;;;;;;;44.42;6.50;;;;;;;;;;5008248;28;20535;-64
2022/11/17 01:38:41;;;;;;;38.50;6.05;;;;;;;;;;4993570;28;20121;-63
2022/11/17 01:41:13;;;;;;;36.60;5.57;;;;;;;;;;5002318;28;20026;-60
2022/11/17 01:43:45;;;;;;;34.42;5.82;;;;;;;;;;5003225;28;20033;-60
2022/11/17 01:46:15;;;;;;;30.45;5.55;;;;;;;;;;5005620;28;20528;-60
2022/11/17 01:48:43;;;;;;;39.42;5.47;;;;;;;;;;5000754;28;20092;-59
2022/11/17 01:51:14;;;;;;;32.00;5.20;;;;;;;;;;5002624;28;20109;-62
2022/11/17 01:53:42;;;;;;;24.88;4.78;;;;;;;;;;5003487;28;20038;-62
2022/11/17 01:56:11;;;;;;;27.38;4.32;;;;;;;;;;4981527;28;20469;-62
2022/11/17 01:58:41;;;;;;;31.08;4.05;;;;;;;;;;5001537;28;20026;-61
2022/11/17 02:01:08;;;;;;;24.33;4.50;;;;;;;;;;5002850;28;20526;-62
2022/11/17 02:03:35;;;;;;;23.98;4.20;;;;;;;;;;5002497;28;20102;-60
2022/11/17 02:06:02;;;;;;;26.33;4.35;;;;;;;;;;5007131;28;20028;-62
2022/11/17 02:08:31;;;;;;;24.27;3.92;;;;;;;;;;5011954;28;20026;-60
2022/11/17 02:10:58;;;;;;;24.45;4.30;;;;;;;;;;5011964;28;20140;-61
2022/11/17 02:13:26;;;;;;;24.98;4.68;;;;;;;;;;5012127;28;20809;-62
2022/11/17 02:15:53;;;;;;;16.17;3.72;;;;;;;;;;5011795;28;20484;-60
2022/11/17 02:18:20;;;;;;;13.90;3.40;;;;;;;;;;5011837;28;20057;-62
2022/11/17 02:20:47;;;;;;;16.08;3.70;;;;;;;;;;5012673;28;20030;-62
2022/11/17 02:23:32;;;;;;;17.63;3.67;;;;;;;;;;4994756;28;20038;-62
2022/11/17 02:26:17;;;;;;;24.20;3.60;;;;;;;;;;5012500;28;20034;-62
2022/11/17 02:28:50;;;;;;;17.02;3.03;;;;;;;;;;5012602;28;20026;-62
2022/11/17 02:31:20;;;;;;;20.25;3.13;;;;;;;;;;5012336;28;20091;-62
2022/11/17 02:33:53;;;;;;;16.52;3.13;;;;;;;;;;5012537;28;20034;-62
2022/11/17 02:36:22;;;;;;;19.23;3.35;;;;;;;;;;5011790;28;20407;-62
2022/11/17 02:39:04;;;;;;;16.60;2.55;;;;;;;;;;5012603;28;20349;-62
2022/11/17 02:41:31;;;;;;;16.45;2.92;;;;;;;;;;5012616;28;20475;-62
2022/11/17 02:44:11;;;;;;;13.60;2.63;;;;;;;;;;5012214;28;20034;-62
2022/11/17 02:46:53;;;;;;;17.35;2.92;;;;;;;;;;5014710;28;20030;-62
2022/11/17 02:49:31;;;;;;;21.38;3.10;;;;;;;;;;5016316;28;20113;-62
2022/11/17 02:51:59;;;;;;;11.82;3.05;;;;;;;;;;5016080;28;20049;-62
2022/11/17 02:54:29;;;;;;;13.95;2.35;;;;;;;;;;5016122;28;20033;-62
2022/11/17 02:56:56;;;;;;;14.60;2.75;;;;;;;;;;5016163;28;20033;-62
2022/11/17 02:59:29;;;;;;;16.08;2.95;;;;;;;;;;5016104;28;20037;-62
2022/11/17 03:02:09;;;;;;;15.68;2.75;;;;;;;;;;5016049;28;20042;-62
2022/11/17 03:04:45;;;;;;;9.93;2.30;;;;;;;;;;5015885;28;20542;-62
2022/11/17 03:07:34;;;;;;;18.58;3.22;;;;;;;;;;5015890;28;20027;-62
2022/11/17 03:10:01;;;;;;;17.40;2.38;;;;;;;;;;4998304;28;20083;-62
2022/11/17 03:12:34;;;;;;;16.33;2.50;;;;;;;;;;5015756;28;20487;-62
2022/11/17 03:15:01;;;;;;;15.55;2.47;;;;;;;;;;5015561;28;20088;-62
2022/11/17 03:17:32;;;;;;;15.82;2.65;;;;;;;;;;4994650;28;20054;-62
2022/11/17 03:20:11;;;;;;;11.67;2.23;;;;;;;;;;4996183;28;20117;-62
2022/11/17 03:22:43;;;;;;;15.13;2.42;;;;;;;;;;4996158;28;20496;-62
2022/11/17 03:25:13;;;;;;;12.20;2.20;;;;;;;;;;4996006;28;20027;-62
2022/11/17 03:27:44;;;;;;;17.60;2.63;;;;;;;;;;4996095;28;20396;-62
2022/11/17 03:30:12;;;;;;;12.90;2.28;;;;;;;;;;4995832;28;20041;-62
2022/11/17 03:32:40;;;;;;;14.52;2.50;;;;;;;;;;4995952;28;20102;-62
2022/11/17 03:35:10;;;;;;;8.68;2.20;;;;;;;;;;4995872;28;20049;-62
2022/11/17 03:37:39;;;;;;;15.52;2.70;;;;;;;;;;4996200;28;20034;-62
2022/11/17 03:40:08;;;;;;;13.10;2.55;;;;;;;;;;4995847;28;20018;-62
2022/11/17 03:42:37;;;;;;;14.40;2.40;;;;;;;;;;4995896;28;20077;-62
2022/11/17 03:45:04;;;;;;;14.13;2.40;;;;;;;;;;4995756;28;20049;-62
2022/11/17 03:47:33;;;;;;;11.27;2.20;;;;;;;;;;4995746;28;20072;-62
2022/11/17 03:50:04;;;;;;;13.10;2.20;;;;;;;;;;4995673;28;20038;-62
2022/11/17 03:52:32;;;;;;;12.35;2.47;;;;;;;;;;4995542;28;20034;-62
2022/11/17 03:54:59;;;;;;;15.75;2.33;;;;;;;;;;4995585;28;20091;-62
2022/11/17 03:57:25;;;;;;;14.73;2.63;;;;;;;;;;4994567;28;20361;-62
2022/11/17 04:00:00;;;;;;;11.07;1.80;;;;;;;;;;4995450;28;20507;-62
2022/11/17 04:02:28;;;;;;;13.32;2.45;;;;;;;;;;4995319;28;20033;-62
2022/11/17 04:05:07;;;;;;;13.35;2.25;;;;;;;;;;4995578;28;20038;-62
2022/11/17 04:07:41;;;;;;;13.05;2.05;;;;;;;;;;4995305;28;20041;-62
2022/11/17 04:10:18;;;;;;;12.73;2.30;;;;;;;;;;4995242;28;20540;-62
2022/11/17 04:16:16;;;;;;;9.43;2.10;;;;;;;;;;4995411;28;20050;-62
2022/11/17 04:18:18;;;;;;;13.48;2.45;;;;;;;;;;5007208;28;20050;-62
2022/11/17 04:20:45;;;;;;;11.25;2.03;;;;;;;;;;5014636;28;20054;-62
2022/11/17 04:23:13;;;;;;;14.65;1.80;;;;;;;;;;5014431;28;20101;-62
2022/11/17 04:28:37;;;;;;;8.63;1.75;;;;;;;;;;5014702;28;20040;-62
2022/11/17 04:31:24;;;;;;;10.88;2.30;;;;;;;;;;5014257;28;20034;-62
2022/11/17 04:33:52;;;;;;;9.95;2.20;;;;;;;;;;5014231;28;20109;-62
2022/11/17 04:36:20;;;;;;;10.20;1.77;;;;;;;;;;5014327;28;20033;-62
2022/11/17 04:38:49;;;;;;;13.98;2.22;;;;;;;;;;5014221;28;20480;-62
2022/11/17 04:44:03;;;;;;;5.35;1.60;;;;;;;;;;5014074;28;20167;-62
2022/11/17 04:46:31;;;;;;;6.20;1.90;;;;;;;;;;5014046;28;20018;-62
2022/11/17 04:48:58;;;;;;;6.70;1.40;;;;;;;;;;5014005;28;20022;-62
2022/11/17 04:51:26;;;;;;;7.00;1.80;;;;;;;;;;5014024;28;20556;-62
2022/11/17 04:53:52;;;;;;;6.68;1.52;;;;;;;;;;4996302;28;20026;-62
2022/11/17 04:56:20;;;;;;;5.50;1.55;;;;;;;;;;5013906;28;20080;-62
2022/11/17 04:58:47;;;;;;;7.45;1.73;;;;;;;;;;5013819;28;20030;-62
2022/11/17 05:01:16;;;;;;;7.38;2.10;;;;;;;;;;5013827;28;20088;-62
2022/11/17 05:03:47;;;;;;;11.52;1.65;;;;;;;;;;5013835;28;20458;-62
2022/11/17 05:06:16;;;;;;;6.03;1.50;;;;;;;;;;5013793;28;20049;-62
2022/11/17 05:08:43;;;;;;;5.55;1.40;;;;;;;;;;5013656;28;20081;-62
2022/11/17 05:13:56;;;;;;;7.75;1.90;;;;;;;;;;5013854;28;20048;-62
2022/11/17 05:19:12;;;;;;;5.60;1.58;;;;;;;;;;5013852;28;20068;-62
2022/11/17 05:21:39;;;;;;;5.45;1.70;;;;;;;;;;5013557;28;20037;-62
2022/11/17 05:24:06;;;;;;;4.40;1.25;;;;;;;;;;5013449;28;20022;-62
2022/11/17 05:26:34;;;;;;;4.85;1.52;;;;;;;;;;5013551;28;20029;-62
2022/11/17 05:29:02;;;;;;;3.70;1.50;;;;;;;;;;5013402;28;20034;-62
2022/11/17 05:31:29;;;;;;;6.10;1.60;;;;;;;;;;5013284;28;20026;-62
2022/11/17 05:33:57;;;;;;;5.40;1.73;;;;;;;;;;4995504;28;20373;-62
2022/11/17 05:36:24;;;;;;;5.80;1.45;;;;;;;;;;5013199;28;20034;-62
2022/11/17 05:38:52;;;;;;;4.80;1.40;;;;;;;;;;5013272;28;20072;-60
2022/11/17 05:41:19;;;;;;;5.75;1.25;;;;;;;;;;5013200;28;20037;-60
2022/11/17 05:43:46;;;;;;;4.70;1.48;;;;;;;;;;5013097;28;20103;-60
2022/11/17 05:46:13;;;;;;;4.63;1.30;;;;;;;;;;5013223;28;20041;-60
2022/11/17 05:48:40;;;;;;;6.32;1.50;;;;;;;;;;5013127;28;20022;-60
2022/11/17 05:51:07;;;;;;;4.18;1.25;;;;;;;;;;5012868;28;20041;-59
2022/11/17 05:53:34;;;;;;;5.00;1.50;;;;;;;;;;5012979;28;20502;-60
2022/11/17 05:56:10;;;;;;;7.18;1.50;;;;;;;;;;5013065;28;20026;-60
2022/11/17 05:58:38;;;;;;;6.65;1.42;;;;;;;;;;5013115;28;20040;-60
2022/11/17 06:01:06;;;;;;;21.02;1.67;;;;;;;;;;5010804;28;20029;-62
2022/11/17 06:03:35;;;;;;;4.60;1.20;;;;;;;;;;5012834;28;20033;-62
2022/11/17 06:06:02;;;;;;;5.78;1.65;;;;;;;;;;5012904;28;20072;-62
2022/11/17 06:08:30;;;;;;;7.15;1.23;;;;;;;;;;4995222;28;20041;-62
2022/11/17 06:10:57;;;;;;;4.28;1.30;;;;;;;;;;5012612;28;20538;-62
2022/11/17 06:13:27;;;;;;;5.32;1.25;;;;;;;;;;5012411;28;20034;-62
2022/11/17 06:15:59;;;;;;;7.25;1.58;;;;;;;;;;5012462;28;20036;-62
2022/11/17 06:18:28;;;;;;;5.68;1.55;;;;;;;;;;5012850;28;20069;-62
2022/11/17 06:20:55;;;;;;;3.63;1.30;;;;;;;;;;5013956;28;20074;-62
2022/11/17 06:23:25;;;;;;;5.85;1.38;;;;;;;;;;5016423;28;20037;-61
2022/11/17 06:25:52;;;;;;;3.58;1.80;;;;;;;;;;5016585;28;20125;-60
2022/11/17 06:28:20;;;;;;;5.97;1.40;;;;;;;;;;5016669;28;20040;-60
2022/11/17 06:30:48;;;;;;;5.43;1.38;;;;;;;;;;5016612;28;20046;-61
2022/11/17 06:33:16;;;;;;;3.60;1.30;;;;;;;;;;5016492;28;20018;-62
2022/11/17 06:35:43;;;;;;;4.68;1.40;;;;;;;;;;5016608;28;20057;-62
2022/11/17 06:38:11;;;;;;;5.30;1.60;;;;;;;;;;5016366;28;20396;-62
2022/11/17 06:40:37;;;;;;;4.57;1.35;;;;;;;;;;5016514;28;20029;-62
2022/11/17 06:43:08;;;;;;;4.53;1.50;;;;;;;;;;5016345;28;20036;-62
2022/11/17 06:45:45;;;;;;;6.18;1.50;;;;;;;;;;5016253;28;20030;-62
2022/11/17 06:48:13;;;;;;;5.00;1.42;;;;;;;;;;5016333;28;20030;-62
2022/11/17 06:50:40;;;;;;;2.60;1.17;;;;;;;;;;5016255;28;20116;-62
2022/11/17 06:53:09;;;;;;;5.47;1.40;;;;;;;;;;5016130;28;20435;-62
2022/11/17 06:55:35;;;;;;;2.63;1.27;;;;;;;;;;5016234;28;20072;-62
2022/11/17 06:58:06;;;;;;;2.15;1.33;;;;;;;;;;5016000;28;20472;-60
2022/11/17 07:00:34;;;;;;;3.45;1.27;;;;;;;;;;4998469;28;20029;-60
2022/11/17 07:03:02;;;;;;;2.88;1.25;;;;;;;;;;5015986;28;20033;-60
2022/11/17 07:05:29;;;;;;;1.92;1.05;;;;;;;;;;5016036;28;20030;-60
2022/11/17 07:07:57;;;;;;;5.10;1.42;;;;;;;;;;5015835;28;20040;-60
2022/11/17 07:10:25;;;;;;;4.35;1.23;;;;;;;;;;5015845;28;20030;-60
2022/11/17 07:12:52;;;;;;;4.50;1.40;;;;;;;;;;5015852;28;20033;-59
2022/11/17 07:15:19;;;;;;;5.88;1.20;;;;;;;;;;5015852;28;20450;-60
2022/11/17 07:17:46;;;;;;;3.00;1.35;;;;;;;;;;5015750;28;20081;-60
2022/11/17 07:20:13;;;;;;;3.20;1.20;;;;;;;;;;5015741;28;20030;-60
2022/11/17 07:22:40;;;;;;;3.88;1.05;;;;;;;;;;5015687;28;20115;-60
2022/11/17 07:25:07;;;;;;;3.00;1.27;;;;;;;;;;5015698;28;20105;-60
2022/11/17 07:27:34;;;;;;;3.83;1.05;;;;;;;;;;5015616;28;20475;-60
2022/11/17 07:30:01;;;;;;;3.58;1.30;;;;;;;;;;5015639;28;20026;-60
2022/11/17 07:32:30;;;;;;;4.50;1.13;;;;;;;;;;5014191;28;20084;-60
2022/11/17 07:34:57;;;;;;;2.85;1.48;;;;;;;;;;5015409;28;20068;-60
2022/11/17 07:37:24;;;;;;;4.32;1.20;;;;;;;;;;5015485;28;20034;-60
2022/11/17 07:39:51;;;;;;;3.67;1.30;;;;;;;;;;5015402;28;20026;-60
2022/11/17 07:42:18;;;;;;;4.28;1.00;;;;;;;;;;4997621;28;20026;-60
2022/11/17 07:44:45;;;;;;;2.55;1.10;;;;;;;;;;5015251;28;20029;-60
2022/11/17 07:47:12;;;;;;;4.65;1.25;;;;;;;;;;5015342;28;20030;-60
2022/11/17 07:49:39;;;;;;;2.92;1.10;;;;;;;;;;5015736;28;20033;-60
2022/11/17 07:52:05;;;;;;;4.40;1.10;;;;;;;;;;5014995;28;20034;-60
2022/11/17 07:54:32;;;;;;;2.72;1.08;;;;;;;;;;5015063;28;20029;-60
2022/11/17 07:56:59;;;;;;;1.85;0.98;;;;;;;;;;5015123;28;20088;-60
2022/11/17 07:59:27;;;;;;;2.67;1.05;;;;;;;;;;5015160;28;20030;-60
2022/11/17 08:01:54;;;;;;;3.25;1.20;;;;;;;;;;5014980;28;20030;-60
2022/11/17 08:04:21;;;;;;;3.03;1.10;;;;;;;;;;5014940;28;20021;-60
2022/11/17 08:06:48;;;;;;;2.35;1.10;;;;;;;;;;5014906;28;20063;-60
2022/11/17 08:09:15;;;;;;;4.82;1.10;;;;;;;;;;5014845;28;20032;-60
2022/11/17 08:11:42;;;;;;;2.67;1.13;;;;;;;;;;5014746;28;20496;-60
2022/11/17 08:14:09;;;;;;;2.80;1.20;;;;;;;;;;5014693;28;20038;-60
2022/11/17 08:16:36;;;;;;;5.38;0.95;;;;;;;;;;5014458;28;20057;-61
2022/11/17 08:19:05;;;;;;;2.72;1.20;;;;;;;;;;5014726;28;20033;-62
2022/11/17 08:21:32;;;;;;;2.45;0.88;;;;;;;;;;5014635;28;20034;-62
2022/11/17 08:23:59;;;;;;;2.50;0.82;;;;;;;;;;4996882;28;20029;-62
2022/11/17 08:26:26;;;;;;;4.32;1.00;;;;;;;;;;5014440;28;20399;-62
2022/11/17 08:28:52;;;;;;;1.50;0.82;;;;;;;;;;5014548;28;20061;-62
2022/11/17 08:31:19;;;;;;;2.78;1.10;;;;;;;;;;5014467;28;20088;-62
2022/11/17 08:33:46;;;;;;;1.70;1.13;;;;;;;;;;5014283;28;20073;-62
2022/11/17 08:36:13;;;;;;;4.78;1.00;;;;;;;;;;5014449;28;20018;-62
2022/11/17 08:38:40;;;;;;;4.43;1.05;;;;;;;;;;5014334;28;20029;-62
2022/11/17 08:41:08;;;;;;;5.05;1.08;;;;;;;;;;5014321;28;20029;-62
2022/11/17 08:43:35;;;;;;;3.70;1.10;;;;;;;;;;5013713;28;20396;-62
2022/11/17 08:46:02;;;;;;;4.43;0.82;;;;;;;;;;5014220;28;20018;-62
2022/11/17 08:48:30;;;;;;;2.38;1.05;;;;;;;;;;5014088;28;20032;-60
2022/11/17 08:50:57;;;;;;;2.72;0.80;;;;;;;;;;5013995;28;20042;-60
2022/11/17 08:53:24;;;;;;;4.43;1.10;;;;;;;;;;5013851;28;20025;-60
2022/11/17 08:55:51;;;;;;;5.68;1.08;;;;;;;;;;5013858;28;20076;-60
2022/11/17 08:58:18;;;;;;;3.58;1.10;;;;;;;;;;5014009;28;20026;-60
2022/11/17 09:00:46;;;;;;;4.47;1.10;;;;;;;;;;5013810;28;20546;-60
2022/11/17 09:03:13;;;;;;;7.22;1.00;;;;;;;;;;5013720;28;20036;-60
2022/11/17 09:05:41;;;;;;;5.55;1.05;;;;;;;;;;5013818;28;20049;-60
2022/11/17 09:08:08;;;;;;;3.70;0.80;;;;;;;;;;5013875;28;20379;-60
2022/11/17 09:10:38;;;;;;;5.90;1.10;;;;;;;;;;5013754;28;20080;-60
2022/11/17 09:13:05;;;;;;;2.97;0.80;;;;;;;;;;5013650;28;20048;-60
2022/11/17 09:15:33;;;;;;;2.75;1.00;;;;;;;;;;5013654;28;20025;-60
2022/11/17 09:18:02;;;;;;;4.50;0.80;;;;;;;;;;5013510;28;20073;-60
2022/11/17 09:20:30;;;;;;;5.68;1.00;;;;;;;;;;5013437;28;20033;-59
2022/11/17 09:23:00;;;;;;;3.47;0.90;;;;;;;;;;5013467;28;20034;-60
2022/11/17 09:25:27;;;;;;;2.70;1.08;;;;;;;;;;5013453;28;20029;-60
2022/11/17 09:27:54;;;;;;;4.35;0.90;;;;;;;;;;5013569;28;20033;-60
2022/11/17 09:30:21;;;;;;;5.15;0.90;;;;;;;;;;5013414;28;20023;-60
2022/11/17 09:32:51;;;;;;;2.90;1.00;;;;;;;;;;5013117;28;20033;-62
2022/11/17 09:35:18;;;;;;;1.73;0.70;;;;;;;;;;5013424;28;20022;-62
2022/11/17 09:37:46;;;;;;;2.85;1.00;;;;;;;;;;5013415;28;20030;-62
2022/11/17 09:40:15;;;;;;;1.80;0.70;;;;;;;;;;5013320;28;20480;-62
2022/11/17 09:42:42;;;;;;;2.20;0.80;;;;;;;;;;5013006;28;20463;-62
2022/11/17 09:45:09;;;;;;;3.75;1.02;;;;;;;;;;5013263;28;20117;-62
2022/11/17 09:47:40;;;;;;;1.50;0.70;;;;;;;;;;5012994;28;20484;-61
2022/11/17 09:50:21;;;;;;;3.03;0.70;;;;;;;;;;5013171;28;20096;-62
2022/11/17 09:52:53;;;;;;;3.60;0.88;;;;;;;;;;5012818;28;20046;-62
2022/11/17 09:55:26;;;;;;;1.75;0.60;;;;;;;;;;5012369;28;20022;-62
2022/11/17 09:58:13;;;;;;;3.17;0.77;;;;;;;;;;5013262;28;20465;-62
2022/11/17 10:00:41;;;;;;;2.15;0.70;;;;;;;;;;4982975;28;20092;-62
2022/11/17 10:03:28;;;;;;;5.25;1.00;;;;;;;;;;5012790;28;20056;-62
2022/11/17 10:05:55;;;;;;;2.83;0.98;;;;;;;;;;5012952;28;20029;-62
2022/11/17 10:08:28;;;;;;;3.40;0.90;;;;;;;;;;5013031;28;20029;-62
2022/11/17 10:10:55;;;;;;;1.02;0.73;;;;;;;;;;5012426;28;20084;-60
2022/11/17 10:13:22;;;;;;;1.48;0.70;;;;;;;;;;5012382;28;20041;-61
2022/11/17 10:15:51;;;;;;;3.97;0.80;;;;;;;;;;5012703;28;20044;-62
2022/11/17 10:18:18;;;;;;;3.45;0.82;;;;;;;;;;5012795;28;20032;-62
2022/11/17 10:20:46;;;;;;;3.95;1.05;;;;;;;;;;5012873;28;20030;-62
2022/11/17 10:23:14;;;;;;;1.83;0.80;;;;;;;;;;5012547;28;20018;-62
2022/11/17 10:25:42;;;;;;;3.22;0.98;;;;;;;;;;5012765;28;20548;-62
2022/11/17 10:28:26;;;;;;;1.60;0.80;;;;;;;;;;5012820;28;20022;-62
2022/11/17 10:30:59;;;;;;;2.00;0.90;;;;;;;;;;5012651;28;20042;-62
2022/11/17 10:33:36;;;;;;;4.20;1.00;;;;;;;;;;5012528;28;20038;-62
2022/11/17 10:36:06;;;;;;;3.83;1.33;;;;;;;;;;5012551;28;20034;-62
2022/11/17 10:38:34;;;;;;;2.28;0.90;;;;;;;;;;5012511;28;20034;-62
2022/11/17 10:41:02;;;;;;;1.80;0.80;;;;;;;;;;5012679;28;20547;-62
2022/11/17 10:43:30;;;;;;;2.67;1.20;;;;;;;;;;5012385;28;20377;-62
2022/11/17 10:45:59;;;;;;;2.00;0.93;;;;;;;;;;4994762;28;20388;-62
2022/11/17 10:48:34;;;;;;;1.55;0.93;;;;;;;;;;5012554;28;20045;-62
2022/11/17 10:51:10;;;;;;;1.80;0.93;;;;;;;;;;5012421;28;20038;-62
2022/11/17 10:53:38;;;;;;;3.40;1.08;;;;;;;;;;5012316;28;20042;-62
2022/11/17 10:56:20;;;;;;;2.75;1.10;;;;;;;;;;5012498;28;20030;-62
2022/11/17 10:58:53;;;;;;;2.63;1.13;;;;;;;;;;5012449;28;20498;-62
2022/11/17 11:01:27;;;;;;;4.38;1.33;;;;;;;;;;5011879;28;20030;-62
2022/11/17 11:03:54;;;;;;;2.25;1.13;;;;;;;;;;5012068;28;20029;-59
2022/11/17 11:06:26;;;;;;;3.72;1.40;;;;;;;;;;5012594;28;20026;-60
2022/11/17 11:08:52;;;;;;;4.05;1.38;;;;;;;;;;5016159;28;20021;-60
2022/11/17 11:11:38;;;;;;;3.55;1.50;;;;;;;;;;5016029;28;20030;-60
2022/11/17 11:14:10;;;;;;;3.80;1.50;;;;;;;;;;5015612;28;20033;-61
2022/11/17 11:16:37;;;;;;;2.50;1.38;;;;;;;;;;5015684;28;20533;-62
2022/11/17 11:19:11;;;;;;;3.22;1.20;;;;;;;;;;5015795;28;20049;-62
2022/11/17 11:21:44;;;;;;;3.47;1.30;;;;;;;;;;5015704;28;20026;-62
2022/11/17 11:24:17;;;;;;;3.60;1.30;;;;;;;;;;5015190;28;20408;-60
2022/11/17 11:26:58;;;;;;;5.15;1.20;;;;;;;;;;5015717;28;20018;-62
2022/11/17 11:29:50;;;;;;;1.98;1.13;;;;;;;;;;5015759;28;20112;-62
2022/11/17 11:32:20;;;;;;;3.55;1.20;;;;;;;;;;4992024;28;20111;-64
2022/11/17 11:34:47;;;;;;;7.20;1.67;;;;;;;;;;5009960;28;20506;-63
2022/11/17 11:37:15;;;;;;;2.92;1.20;;;;;;;;;;5015288;28;20026;-63
2022/11/17 11:39:51;;;;;;;6.38;1.50;;;;;;;;;;5014528;28;20032;-60
2022/11/17 11:42:32;;;;;;;3.45;1.40;;;;;;;;;;5010692;28;20030;-61
2022/11/17 11:45:05;;;;;;;7.95;1.80;;;;;;;;;;5014966;28;20029;-60
2022/11/17 11:47:32;;;;;;;13.15;1.73;;;;;;;;;;5014830;28;20033;-61
2022/11/17 11:50:01;;;;;;;8.00;1.42;;;;;;;;;;5014518;28;20026;-62
2022/11/17 11:52:31;;;;;;;11.98;1.88;;;;;;;;;;5013799;28;20435;-62
2022/11/17 11:55:04;;;;;;;13.32;1.48;;;;;;;;;;5014659;28;20503;-62
2022/11/17 11:57:30;;;;;;;;;;;;;;;;;;5014793;28;20028;-61
2022/11/17 12:00:02;;;;;;;9.82;1.30;;;;;;;;;;5014271;28;19920;-62
2022/11/17 12:02:32;;;;;;;8.02;1.60;;;;;;;;;;5014264;28;20018;-62
2022/11/17 12:05:17;;;;;;;8.23;1.50;;;;;;;;;;5013861;28;20034;-62
2022/11/17 12:08:04;;;;;;;8.73;1.80;;;;;;;;;;5012270;28;20108;-61
2022/11/17 12:10:39;;;;;;;5.10;1.38;;;;;;;;;;5012851;28;20026;-61
2022/11/17 12:13:12;;;;;;;6.03;1.60;;;;;;;;;;5013852;28;20072;-61
2022/11/17 12:15:39;;;;;;;8.23;1.42;;;;;;;;;;5013999;28;20030;-61
2022/11/17 12:18:06;;;;;;;7.40;1.30;;;;;;;;;;5013667;28;20096;-61
2022/11/17 12:20:42;;;;;;;6.50;1.30;;;;;;;;;;5013515;28;20038;-61
2022/11/17 12:23:15;;;;;;;7.50;1.42;;;;;;;;;;5014191;28;20044;-61
2022/11/17 12:25:45;;;;;;;12.50;1.58;;;;;;;;;;5014537;28;20384;-61
2022/11/17 12:28:26;;;;;;;8.82;1.58;;;;;;;;;;5009877;28;20029;-60
2022/11/17 12:31:11;;;;;;;12.25;1.60;;;;;;;;;;5008801;28;20128;-63
2022/11/17 12:33:54;;;;;;;8.43;1.77;;;;;;;;;;5012701;28;20760;-61
2022/11/17 12:36:20;;;;;;;;;;;;;;;;;;5013633;28;20034;-61
2022/11/17 12:38:47;;;;;;;4.65;1.17;;;;;;;;;;5012501;28;19918;-60
2022/11/17 12:41:14;;;;;;;8.35;1.42;;;;;;;;;;5012417;28;20045;-61
2022/11/17 12:43:41;;;;;;;5.50;1.23;;;;;;;;;;5013186;28;20076;-60
2022/11/17 12:46:14;;;;;;;9.50;1.77;;;;;;;;;;5013553;28;20053;-60
2022/11/17 12:48:47;;;;;;;10.65;1.70;;;;;;;;;;5012673;28;20065;-61
2022/11/17 12:51:30;;;;;;;13.68;1.77;;;;;;;;;;5013782;28;20036;-61
2022/11/17 12:53:57;;;;;;;13.07;2.03;;;;;;;;;;5013587;28;20034;-60
2022/11/17 12:56:24;;;;;;;19.02;1.98;;;;;;;;;;5013164;28;20065;-60
2022/11/17 12:58:52;;;;;;;7.30;1.70;;;;;;;;;;5013281;28;20045;-59
2022/11/17 13:01:34;;;;;;;13.65;1.63;;;;;;;;;;5013098;28;20040;-59
2022/11/17 13:04:01;;;;;;;;;;;;;;;;;;5010446;28;20440;-61
2022/11/17 13:06:28;;;;;;;12.45;1.58;;;;;;;;;;5013000;28;19963;-61
2022/11/17 13:08:58;;;;;;;14.25;1.60;;;;;;;;;;5009299;28;20065;-61
2022/11/17 13:11:25;;;;;;;12.88;1.73;;;;;;;;;;5013267;28;20407;-58
2022/11/17 13:14:12;;;;;;;6.53;1.48;;;;;;;;;;5011042;28;20423;-59
2022/11/17 13:16:47;;;;;;;11.70;1.52;;;;;;;;;;5011526;28;20073;-60
2022/11/17 13:19:33;;;;;;;5.78;1.33;;;;;;;;;;5011243;28;20030;-59
2022/11/17 13:22:00;;;;;;;11.93;1.45;;;;;;;;;;5011640;28;20033;-60
2022/11/17 13:24:31;;;;;;;13.07;1.58;;;;;;;;;;5011686;28;20104;-60
2022/11/17 13:26:59;;;;;;;7.32;1.15;;;;;;;;;;5012399;28;20033;-60
2022/11/17 13:29:26;;;;;;;8.40;1.55;;;;;;;;;;5012239;28;20029;-59
2022/11/17 13:32:11;;;;;;;5.88;1.08;;;;;;;;;;5009296;28;20038;-59
2022/11/17 13:34:52;;;;;;;4.68;1.15;;;;;;;;;;5011485;28;20459;-59
2022/11/17 13:37:28;;;;;;;6.50;1.30;;;;;;;;;;5011816;28;20065;-59
2022/11/17 13:40:04;;;;;;;17.75;1.58;;;;;;;;;;5012423;28;20040;-59
2022/11/17 13:42:32;;;;;;;11.95;1.35;;;;;;;;;;5012361;28;20069;-58
2022/11/17 13:45:01;;;;;;;5.90;1.50;;;;;;;;;;5011700;28;20132;-58
2022/11/17 13:47:34;;;;;;;12.88;1.50;;;;;;;;;;5010833;28;20542;-59
2022/11/17 13:50:19;;;;;;;10.52;1.40;;;;;;;;;;5009687;28;20037;-60
2022/11/17 13:52:46;;;;;;;7.13;1.83;;;;;;;;;;5010302;28;20033;-60
2022/11/17 13:55:19;;;;;;;10.63;1.70;;;;;;;;;;5011949;28;20387;-58
2022/11/17 13:58:04;;;;;;;12.73;1.90;;;;;;;;;;5008962;28;20079;-60
2022/11/17 14:00:31;;;;;;;11.85;1.80;;;;;;;;;;5010786;28;20652;-59
2022/11/17 14:03:00;;;;;;;14.15;1.50;;;;;;;;;;5010922;28;20029;-59
2022/11/17 14:05:31;;;;;;;20.13;1.90;;;;;;;;;;5012181;28;20423;-60
2022/11/17 14:08:10;;;;;;;11.48;1.75;;;;;;;;;;5010452;28;20065;-59
2022/11/17 14:10:38;;;;;;;10.30;1.73;;;;;;;;;;4994199;28;20069;-60
2022/11/17 14:13:05;;;;;;;12.93;1.70;;;;;;;;;;5011833;28;20044;-59
2022/11/17 14:15:36;;;;;;;8.00;1.60;;;;;;;;;;5012262;28;20051;-59
2022/11/17 14:18:05;;;;;;;14.10;1.55;;;;;;;;;;5008938;28;20389;-60
2022/11/17 14:20:33;;;;;;;6.63;1.15;;;;;;;;;;5011589;28;20512;-60
2022/11/17 14:23:01;;;;;;;7.22;1.38;;;;;;;;;;5011183;28;20040;-61
2022/11/17 14:25:34;;;;;;;12.65;2.13;;;;;;;;;;5011642;28;20040;-59
2022/11/17 14:28:01;;;;;;;12.32;3.00;;;;;;;;;;5010607;28;20026;-59
2022/11/17 14:30:28;;;;;;;10.38;1.50;;;;;;;;;;4994412;28;20037;-57
2022/11/17 14:32:55;;;;;;;13.68;1.80;;;;;;;;;;5011953;28;20034;-59
2022/11/17 14:35:22;;;;;;;12.23;2.00;;;;;;;;;;5012314;28;20030;-59
2022/11/17 14:37:49;;;;;;;9.57;1.90;;;;;;;;;;4994520;28;20025;-57
2022/11/17 14:40:19;;;;;;;10.10;2.00;;;;;;;;;;5011309;28;20033;-57
2022/11/17 14:42:46;;;;;;;6.45;1.50;;;;;;;;;;5014056;28;20036;-55
2022/11/17 14:45:15;;;;;;;11.02;1.70;;;;;;;;;;5015932;28;20065;-59
2022/11/17 14:47:42;;;;;;;7.38;1.20;;;;;;;;;;5014502;28;20109;-60
2022/11/17 14:50:14;;;;;;;2.35;1.27;;;;;;;;;;5015418;28;20105;-59
2022/11/17 14:52:41;;;;;;;6.40;1.70;;;;;;;;;;5015704;28;20062;-59
2022/11/17 14:55:12;;;;;;;6.22;1.30;;;;;;;;;;5016039;28;20022;-56
2022/11/17 14:57:39;;;;;;;7.88;1.73;;;;;;;;;;5014756;28;20025;-59
2022/11/17 15:00:08;;;;;;;8.70;1.48;;;;;;;;;;5015405;28;20028;-59
2022/11/17 15:02:36;;;;;;;6.25;1.48;;;;;;;;;;5014163;28;20030;-59
2022/11/17 15:05:03;;;;;;;5.38;1.50;;;;;;;;;;5014858;28;20046;-59
2022/11/17 15:07:30;;;;;;;6.47;2.20;;;;;;;;;;5014403;28;20044;-59
2022/11/17 15:09:57;;;;;;;5.97;1.80;;;;;;;;;;5013404;28;20052;-60
2022/11/17 15:12:24;;;;;;;8.75;1.52;;;;;;;;;;5013306;28;20135;-60
2022/11/17 15:14:52;;;;;;;5.78;1.13;;;;;;;;;;5014479;28;20033;-59
2022/11/17 15:17:19;;;;;;;6.38;1.60;;;;;;;;;;5013363;28;20065;-60